Time;durP1;ratioP1;P1;durP2;ratioP2;P2;SDS_P1;SDS_P2;PMS_P1;PMS_P2;Temp;Humidity;BMP_temperature;BMP_pressure;BME280_temperature;BME280_humidity;BME280_pressure;Samples;Min_cycle;Max_cycle;Signal;HPM_P1;HPM_P2
2023/12/20 00:01:29;;;;;;;20.87;18.97;;;;;;;;;;5030787;28;20960;-38
2023/12/20 00:03:58;;;;;;;20.13;17.17;;;;;;;;;;5030017;28;20433;-38
2023/12/20 00:06:25;;;;;;;19.00;16.83;;;;;;;;;;5030416;28;20951;-38
2023/12/20 00:08:53;;;;;;;21.20;17.00;;;;;;;;;;5029339;28;20519;-39
2023/12/20 00:11:21;;;;;;;19.10;17.17;;;;;;;;;;5029151;28;21061;-38
2023/12/20 00:13:48;;;;;;;18.83;17.00;;;;;;;;;;5030253;28;20967;-39
2023/12/20 00:16:18;;;;;;;18.23;16.43;;;;;;;;;;5029898;28;20436;-39
2023/12/20 00:18:46;;;;;;;17.67;16.27;;;;;;;;;;5029417;28;20460;-38
2023/12/20 00:21:15;;;;;;;25.43;18.03;;;;;;;;;;5029728;28;20452;-38
2023/12/20 00:23:42;;;;;;;26.13;18.70;;;;;;;;;;5030049;28;20467;-38
2023/12/20 00:26:10;;;;;;;19.00;17.00;;;;;;;;;;5029372;28;20440;-38
2023/12/20 00:28:38;;;;;;;17.97;16.73;;;;;;;;;;5029292;28;20460;-38
2023/12/20 00:31:05;;;;;;;19.90;17.40;;;;;;;;;;5029023;28;20471;-38
2023/12/20 00:33:33;;;;;;;42.10;18.30;;;;;;;;;;5029652;28;20439;-39
2023/12/20 00:36:01;;;;;;;19.73;17.70;;;;;;;;;;5028745;28;20459;-38
2023/12/20 00:38:30;;;;;;;19.00;17.37;;;;;;;;;;5029319;28;20532;-38
2023/12/20 00:40:57;;;;;;;20.50;17.43;;;;;;;;;;5028855;28;21004;-39
2023/12/20 00:43:25;;;;;;;20.30;18.30;;;;;;;;;;5029104;28;20523;-39
2023/12/20 00:45:52;;;;;;;19.10;17.13;;;;;;;;;;5028711;28;20456;-38
2023/12/20 00:48:20;;;;;;;19.50;17.50;;;;;;;;;;5028781;28;20478;-39
2023/12/20 00:50:48;;;;;;;18.20;16.70;;;;;;;;;;5029474;28;20464;-39
2023/12/20 00:53:15;;;;;;;19.77;17.90;;;;;;;;;;5029797;28;20813;-38
2023/12/20 00:55:45;;;;;;;19.27;17.60;;;;;;;;;;5031035;28;20511;-38
2023/12/20 00:58:12;;;;;;;18.87;17.13;;;;;;;;;;5026052;28;21018;-38
2023/12/20 01:00:41;;;;;;;20.87;19.00;;;;;;;;;;5028561;28;21025;-39
2023/12/20 01:03:11;;;;;;;26.30;18.43;;;;;;;;;;5028997;28;20516;-38
2023/12/20 01:05:38;;;;;;;19.27;17.47;;;;;;;;;;5030829;28;20464;-39
2023/12/20 01:08:06;;;;;;;23.47;18.47;;;;;;;;;;5027764;28;20447;-38
2023/12/20 01:10:34;;;;;;;17.77;16.30;;;;;;;;;;5032097;28;20467;-38
2023/12/20 01:13:03;;;;;;;18.20;16.93;;;;;;;;;;5027234;28;20468;-38
2023/12/20 01:15:30;;;;;;;16.17;15.07;;;;;;;;;;5028255;28;20467;-38
2023/12/20 01:17:59;;;;;;;18.00;16.27;;;;;;;;;;5028383;28;20865;-38
2023/12/20 01:20:27;;;;;;;17.13;15.80;;;;;;;;;;5028458;28;20539;-38
2023/12/20 01:22:54;;;;;;;17.03;15.83;;;;;;;;;;5029048;28;20867;-38
2023/12/20 01:25:22;;;;;;;17.13;15.60;;;;;;;;;;5028601;28;20528;-39
2023/12/20 01:27:49;;;;;;;16.00;15.10;;;;;;;;;;5027501;28;20432;-38
2023/12/20 01:30:19;;;;;;;15.90;15.00;;;;;;;;;;5028404;28;20456;-38
2023/12/20 01:32:46;;;;;;;16.90;15.43;;;;;;;;;;5028471;28;21074;-38
2023/12/20 01:35:14;;;;;;;16.10;14.90;;;;;;;;;;5027990;28;20494;-38
2023/12/20 01:37:42;;;;;;;16.17;15.27;;;;;;;;;;5028236;28;20441;-39
2023/12/20 01:40:11;;;;;;;16.53;15.23;;;;;;;;;;5027857;28;20460;-38
2023/12/20 01:42:38;;;;;;;16.03;15.07;;;;;;;;;;5028423;28;20436;-38
2023/12/20 01:45:06;;;;;;;15.70;15.00;;;;;;;;;;5027879;28;20432;-38
2023/12/20 01:47:36;;;;;;;16.20;15.10;;;;;;;;;;5028245;28;20519;-38
2023/12/20 01:50:04;;;;;;;17.70;16.30;;;;;;;;;;5027539;28;20491;-40
2023/12/20 01:52:33;;;;;;;16.10;15.33;;;;;;;;;;5027758;28;20476;-38
2023/12/20 01:55:03;;;;;;;17.17;15.73;;;;;;;;;;5027882;28;20467;-38
2023/12/20 01:57:31;;;;;;;19.50;16.43;;;;;;;;;;5027945;28;20437;-38
2023/12/20 01:59:59;;;;;;;17.53;15.90;;;;;;;;;;5029061;28;20559;-38
2023/12/20 02:02:28;;;;;;;17.90;16.63;;;;;;;;;;5027613;28;20536;-39
2023/12/20 02:04:57;;;;;;;17.97;16.63;;;;;;;;;;5027052;28;20789;-38
2023/12/20 02:07:25;;;;;;;18.43;16.80;;;;;;;;;;5027361;28;20436;-38
2023/12/20 02:09:53;;;;;;;17.97;16.60;;;;;;;;;;5028742;28;20491;-41
2023/12/20 02:12:20;;;;;;;17.97;16.63;;;;;;;;;;5026669;28;20471;-38
2023/12/20 02:14:48;;;;;;;20.47;18.80;;;;;;;;;;5028229;28;20523;-39
2023/12/20 02:17:16;;;;;;;17.37;16.30;;;;;;;;;;5029515;28;20443;-45
2023/12/20 02:19:44;;;;;;;21.30;18.90;;;;;;;;;;5025489;28;20566;-38
2023/12/20 02:22:13;;;;;;;18.83;17.03;;;;;;;;;;5036429;28;20994;-38
2023/12/20 02:24:41;;;;;;;18.73;17.00;;;;;;;;;;5035418;28;20428;-38
2023/12/20 02:27:09;;;;;;;19.73;17.73;;;;;;;;;;5035663;28;20526;-40
2023/12/20 02:29:37;;;;;;;17.90;16.33;;;;;;;;;;5030680;28;20522;-38
2023/12/20 02:32:04;;;;;;;18.73;16.83;;;;;;;;;;5026904;28;20953;-37
2023/12/20 02:34:32;;;;;;;18.70;17.03;;;;;;;;;;5027761;28;20479;-40
2023/12/20 02:37:00;;;;;;;19.27;17.77;;;;;;;;;;5026841;28;20523;-39
2023/12/20 02:39:31;;;;;;;20.17;17.90;;;;;;;;;;5027227;28;20464;-39
2023/12/20 02:41:58;;;;;;;21.87;17.67;;;;;;;;;;5028891;28;20463;-44
2023/12/20 02:44:26;;;;;;;18.40;17.10;;;;;;;;;;5027076;28;21127;-38
2023/12/20 02:46:53;;;;;;;27.00;20.07;;;;;;;;;;5027315;28;20436;-38
2023/12/20 02:49:21;;;;;;;21.77;19.20;;;;;;;;;;5026889;28;20468;-38
2023/12/20 02:51:49;;;;;;;25.93;19.10;;;;;;;;;;5030243;28;20456;-38
2023/12/20 02:54:16;;;;;;;23.13;19.63;;;;;;;;;;5025291;28;20476;-39
2023/12/20 02:56:45;;;;;;;22.03;19.90;;;;;;;;;;5027242;28;20476;-40
2023/12/20 02:59:13;;;;;;;24.63;18.20;;;;;;;;;;5026927;28;20547;-39
2023/12/20 03:01:42;;;;;;;20.93;18.00;;;;;;;;;;5027269;28;20452;-39
2023/12/20 03:04:10;;;;;;;22.13;20.13;;;;;;;;;;5026740;28;20432;-38
2023/12/20 03:06:38;;;;;;;22.27;18.37;;;;;;;;;;5027518;28;20433;-39
2023/12/20 03:09:05;;;;;;;23.53;17.70;;;;;;;;;;5026641;28;20836;-38
2023/12/20 03:11:33;;;;;;;20.77;18.50;;;;;;;;;;5026601;28;20466;-38
2023/12/20 03:14:02;;;;;;;21.17;18.60;;;;;;;;;;5027404;28;20483;-38
2023/12/20 03:16:31;;;;;;;22.50;17.60;;;;;;;;;;5027849;28;20475;-38
2023/12/20 03:19:00;;;;;;;20.03;18.17;;;;;;;;;;5026341;28;20911;-40
2023/12/20 03:21:27;;;;;;;20.33;18.37;;;;;;;;;;5030213;28;20452;-39
2023/12/20 03:23:55;;;;;;;20.70;18.80;;;;;;;;;;5031512;28;20531;-38
2023/12/20 03:26:23;;;;;;;22.20;19.27;;;;;;;;;;5030222;28;20530;-39
2023/12/20 03:28:50;;;;;;;21.83;18.37;;;;;;;;;;5031226;28;20456;-38
2023/12/20 03:31:20;;;;;;;26.50;19.63;;;;;;;;;;5030681;28;21065;-37
2023/12/20 03:33:48;;;;;;;22.83;18.13;;;;;;;;;;5031467;28;20471;-39
2023/12/20 03:36:16;;;;;;;24.10;18.03;;;;;;;;;;5032035;28;20440;-38
2023/12/20 03:38:44;;;;;;;23.57;17.53;;;;;;;;;;5036330;28;20551;-41
2023/12/20 03:41:12;;;;;;;27.10;18.50;;;;;;;;;;5031169;28;20456;-39
2023/12/20 03:43:39;;;;;;;24.60;18.40;;;;;;;;;;5030535;28;20489;-39
2023/12/20 03:46:08;;;;;;;24.70;17.80;;;;;;;;;;5030622;28;20810;-38
2023/12/20 03:48:37;;;;;;;23.27;18.20;;;;;;;;;;5030136;28;20467;-38
2023/12/20 03:51:05;;;;;;;20.03;18.07;;;;;;;;;;5030652;28;20487;-40
2023/12/20 03:53:32;;;;;;;23.73;18.90;;;;;;;;;;5030906;28;20504;-38
2023/12/20 03:55:59;;;;;;;24.20;18.73;;;;;;;;;;5030125;28;20827;-39
2023/12/20 03:58:27;;;;;;;31.23;20.10;;;;;;;;;;5030007;28;20459;-38
2023/12/20 04:00:54;;;;;;;28.23;20.80;;;;;;;;;;5030178;28;20452;-39
2023/12/20 04:03:22;;;;;;;24.33;19.13;;;;;;;;;;5030215;28;20439;-37
2023/12/20 04:05:51;;;;;;;24.13;18.43;;;;;;;;;;5031250;28;20911;-39
2023/12/20 04:08:18;;;;;;;20.70;18.67;;;;;;;;;;5028604;28;20459;-39
2023/12/20 04:10:46;;;;;;;22.57;18.53;;;;;;;;;;5030967;28;20452;-38
2023/12/20 04:13:14;;;;;;;20.93;18.03;;;;;;;;;;5029415;28;20436;-38
2023/12/20 04:15:41;;;;;;;20.77;18.47;;;;;;;;;;5021544;28;20441;-39
2023/12/20 04:18:09;;;;;;;20.97;18.13;;;;;;;;;;5029694;28;20460;-40
2023/12/20 04:20:36;;;;;;;23.40;19.03;;;;;;;;;;5031006;28;20463;-39
2023/12/20 04:23:05;;;;;;;22.60;18.70;;;;;;;;;;5029341;28;20448;-39
2023/12/20 04:25:33;;;;;;;26.43;19.10;;;;;;;;;;5029902;28;20471;-38
2023/12/20 04:28:00;;;;;;;26.37;18.90;;;;;;;;;;5029345;28;20436;-37
2023/12/20 04:30:28;;;;;;;30.37;19.33;;;;;;;;;;5028809;28;20490;-40
2023/12/20 04:32:56;;;;;;;20.57;18.50;;;;;;;;;;5028962;28;20440;-38
2023/12/20 04:35:24;;;;;;;19.60;17.70;;;;;;;;;;5028581;28;20468;-38
2023/12/20 04:37:52;;;;;;;28.80;19.00;;;;;;;;;;5028206;28;20432;-38
2023/12/20 04:40:21;;;;;;;27.50;18.80;;;;;;;;;;5028699;28;20462;-38
2023/12/20 04:42:48;;;;;;;41.07;20.27;;;;;;;;;;5028501;28;20436;-38
2023/12/20 04:45:17;;;;;;;23.13;18.50;;;;;;;;;;5030126;28;20436;-40
2023/12/20 04:47:46;;;;;;;27.90;18.27;;;;;;;;;;5027040;28;20436;-38
2023/12/20 04:50:15;;;;;;;20.63;17.87;;;;;;;;;;5027759;28;20452;-38
2023/12/20 04:52:43;;;;;;;33.50;19.07;;;;;;;;;;5028175;28;20440;-38
2023/12/20 04:55:10;;;;;;;21.93;19.53;;;;;;;;;;5028421;28;20471;-40
2023/12/20 04:57:39;;;;;;;21.27;19.50;;;;;;;;;;5027762;28;20433;-40
2023/12/20 05:00:08;;;;;;;29.73;19.60;;;;;;;;;;5027240;28;20514;-38
2023/12/20 05:02:35;;;;;;;32.07;20.20;;;;;;;;;;5027948;28;20523;-38
2023/12/20 05:05:03;;;;;;;22.93;19.37;;;;;;;;;;5028666;28;20505;-39
2023/12/20 05:07:31;;;;;;;21.80;18.23;;;;;;;;;;5028600;28;20436;-40
2023/12/20 05:09:59;;;;;;;35.47;20.93;;;;;;;;;;5026738;28;20543;-39
2023/12/20 05:12:26;;;;;;;24.33;19.00;;;;;;;;;;5027745;28;20437;-39
2023/12/20 05:14:55;;;;;;;29.37;19.80;;;;;;;;;;5028869;28;20472;-39
2023/12/20 05:17:23;;;;;;;24.03;19.90;;;;;;;;;;5026507;28;20439;-38
2023/12/20 05:19:50;;;;;;;32.50;20.63;;;;;;;;;;5028307;28;20484;-38
2023/12/20 05:22:19;;;;;;;26.53;20.77;;;;;;;;;;5027767;28;20432;-38
2023/12/20 05:24:46;;;;;;;25.63;20.20;;;;;;;;;;5028496;28;20428;-38
2023/12/20 05:27:14;;;;;;;27.23;21.80;;;;;;;;;;5027367;28;20440;-38
2023/12/20 05:29:41;;;;;;;26.87;20.00;;;;;;;;;;4988992;28;1105587;-39
2023/12/20 05:32:10;;;;;;;22.40;18.70;;;;;;;;;;5029399;28;20494;-40
2023/12/20 05:34:38;;;;;;;23.30;18.47;;;;;;;;;;5027693;28;20476;-38
2023/12/20 05:37:06;;;;;;;20.50;18.60;;;;;;;;;;5028740;28;20432;-40
2023/12/20 05:39:34;;;;;;;19.67;18.13;;;;;;;;;;5029336;28;20464;-39
2023/12/20 05:42:01;;;;;;;19.80;18.00;;;;;;;;;;5026497;28;20514;-40
2023/12/20 05:44:29;;;;;;;19.73;18.10;;;;;;;;;;5028309;28;20432;-40
2023/12/20 05:46:56;;;;;;;25.80;18.57;;;;;;;;;;5029408;28;20498;-38
2023/12/20 05:49:25;;;;;;;20.07;18.17;;;;;;;;;;5027779;28;20945;-39
2023/12/20 05:51:53;;;;;;;24.23;19.63;;;;;;;;;;5028834;28;20455;-39
2023/12/20 05:54:22;;;;;;;21.70;19.47;;;;;;;;;;5028820;28;20569;-42
2023/12/20 05:56:50;;;;;;;31.77;18.80;;;;;;;;;;5017880;28;20979;-40
2023/12/20 05:59:18;;;;;;;25.37;21.37;;;;;;;;;;5027088;28;20896;-39
2023/12/20 06:01:45;;;;;;;27.90;20.77;;;;;;;;;;5028263;28;20478;-38
2023/12/20 06:04:13;;;;;;;21.90;19.90;;;;;;;;;;5027828;28;20532;-39
2023/12/20 06:06:45;;;;;;;21.80;18.33;;;;;;;;;;5027834;28;20550;-38
2023/12/20 06:09:13;;;;;;;36.10;21.07;;;;;;;;;;5027129;28;20471;-41
2023/12/20 06:11:41;;;;;;;19.83;18.23;;;;;;;;;;5027933;28;20990;-38
2023/12/20 06:14:09;;;;;;;21.07;19.20;;;;;;;;;;5027886;28;20452;-39
2023/12/20 06:16:36;;;;;;;20.17;18.30;;;;;;;;;;5027471;28;20927;-39
2023/12/20 06:19:04;;;;;;;21.33;19.40;;;;;;;;;;5027303;28;20500;-38
2023/12/20 06:21:32;;;;;;;21.33;19.30;;;;;;;;;;5028126;28;20484;-38
2023/12/20 06:24:01;;;;;;;21.30;19.27;;;;;;;;;;5027496;28;20788;-40
2023/12/20 06:26:28;;;;;;;20.47;18.53;;;;;;;;;;5027280;28;20436;-41
2023/12/20 06:28:56;;;;;;;20.43;18.50;;;;;;;;;;5027409;28;20460;-40
2023/12/20 06:31:23;;;;;;;20.43;18.13;;;;;;;;;;5027140;28;20559;-40
2023/12/20 06:33:57;;;;;;;21.27;19.60;;;;;;;;;;5019508;28;20809;-39
2023/12/20 06:36:25;;;;;;;20.90;19.27;;;;;;;;;;5027341;28;21256;-37
2023/12/20 06:38:52;;;;;;;23.07;19.47;;;;;;;;;;5027662;28;20828;-39
2023/12/20 06:41:24;;;;;;;21.50;19.50;;;;;;;;;;5027609;28;20492;-39
2023/12/20 06:43:52;;;;;;;21.07;19.17;;;;;;;;;;5027595;28;20937;-41
2023/12/20 06:46:20;;;;;;;22.17;20.07;;;;;;;;;;5027654;28;20478;-39
2023/12/20 06:48:48;;;;;;;28.87;19.40;;;;;;;;;;5027546;28;20464;-38
2023/12/20 06:51:16;;;;;;;21.03;18.90;;;;;;;;;;5027649;28;20444;-39
2023/12/20 06:53:43;;;;;;;21.50;19.50;;;;;;;;;;5027509;28;20436;-38
2023/12/20 06:56:12;;;;;;;30.90;19.43;;;;;;;;;;5030692;28;20517;-39
2023/12/20 06:58:45;;;;;;;22.57;20.47;;;;;;;;;;5030967;28;20544;-37
2023/12/20 07:01:13;;;;;;;22.17;20.43;;;;;;;;;;5030901;28;20978;-39
2023/12/20 07:03:41;;;;;;;23.70;19.97;;;;;;;;;;5032046;28;20539;-38
2023/12/20 07:06:09;;;;;;;21.60;19.50;;;;;;;;;;5031330;28;20791;-39
2023/12/20 07:08:37;;;;;;;22.33;20.40;;;;;;;;;;5030517;28;20463;-39
2023/12/20 07:11:04;;;;;;;27.30;21.00;;;;;;;;;;5031700;28;20808;-39
2023/12/20 07:13:32;;;;;;;31.83;22.00;;;;;;;;;;5029785;28;20442;-38
2023/12/20 07:16:01;;;;;;;24.27;22.00;;;;;;;;;;5030608;28;20467;-42
2023/12/20 07:18:28;;;;;;;23.77;20.97;;;;;;;;;;5030720;28;20506;-38
2023/12/20 07:20:56;;;;;;;26.73;20.63;;;;;;;;;;5035371;28;20549;-37
2023/12/20 07:23:25;;;;;;;33.23;21.00;;;;;;;;;;5031542;28;20879;-38
2023/12/20 07:25:53;;;;;;;24.20;20.80;;;;;;;;;;5030796;28;20471;-38
2023/12/20 07:28:20;;;;;;;24.93;21.43;;;;;;;;;;5030570;28;20478;-38
2023/12/20 07:30:48;;;;;;;27.17;20.63;;;;;;;;;;5030887;28;20482;-40
2023/12/20 07:33:17;;;;;;;26.00;20.10;;;;;;;;;;5030791;28;20493;-40
2023/12/20 07:35:45;;;;;;;24.20;21.40;;;;;;;;;;5030743;28;20476;-39
2023/12/20 07:38:13;;;;;;;27.17;20.90;;;;;;;;;;5041614;28;20459;-37
2023/12/20 07:40:41;;;;;;;28.73;22.30;;;;;;;;;;5032285;28;20586;-38
2023/12/20 07:43:09;;;;;;;24.13;21.17;;;;;;;;;;5031352;28;20839;-39
2023/12/20 07:45:37;;;;;;;24.57;21.70;;;;;;;;;;5032322;28;20464;-37
2023/12/20 07:48:06;;;;;;;34.23;22.00;;;;;;;;;;5028947;28;20442;-38
2023/12/20 07:50:35;;;;;;;24.63;22.07;;;;;;;;;;5030766;28;20513;-38
2023/12/20 07:53:03;;;;;;;28.70;22.87;;;;;;;;;;5030535;28;20464;-42
2023/12/20 07:55:31;;;;;;;24.47;21.67;;;;;;;;;;5029576;28;20511;-41
2023/12/20 07:57:58;;;;;;;24.27;20.97;;;;;;;;;;5029853;28;20931;-38
2023/12/20 08:00:26;;;;;;;34.87;21.70;;;;;;;;;;5031017;28;20456;-39
2023/12/20 08:02:54;;;;;;;20.60;19.00;;;;;;;;;;5030101;28;20519;-39
2023/12/20 08:05:21;;;;;;;20.03;18.70;;;;;;;;;;5029761;28;20432;-40
2023/12/20 08:07:51;;;;;;;19.10;18.00;;;;;;;;;;5029912;28;20436;-41
2023/12/20 08:10:19;;;;;;;21.60;19.73;;;;;;;;;;5030002;28;21199;-40
2023/12/20 08:12:47;;;;;;;20.13;19.10;;;;;;;;;;5029718;28;20440;-39
2023/12/20 08:15:15;;;;;;;21.13;20.23;;;;;;;;;;5029875;28;20432;-39
2023/12/20 08:17:43;;;;;;;23.37;21.80;;;;;;;;;;5029667;28;20485;-39
2023/12/20 08:20:11;;;;;;;21.90;20.77;;;;;;;;;;5029888;28;21019;-38
2023/12/20 08:22:42;;;;;;;22.50;21.60;;;;;;;;;;5029575;28;20924;-38
2023/12/20 08:25:10;;;;;;;22.07;20.93;;;;;;;;;;5030242;28;20436;-40
2023/12/20 08:27:40;;;;;;;22.30;21.10;;;;;;;;;;5029755;28;20436;-39
2023/12/20 08:30:09;;;;;;;22.30;21.30;;;;;;;;;;5028734;28;20464;-41
2023/12/20 08:32:37;;;;;;;21.47;20.53;;;;;;;;;;5030210;28;20439;-40
2023/12/20 08:35:05;;;;;;;20.90;19.60;;;;;;;;;;5029502;28;20436;-38
2023/12/20 08:37:33;;;;;;;22.10;20.63;;;;;;;;;;5029256;28;20475;-37
2023/12/20 08:40:00;;;;;;;21.00;19.90;;;;;;;;;;5029304;28;20459;-38
2023/12/20 08:42:31;;;;;;;21.00;19.73;;;;;;;;;;5029092;28;20443;-40
2023/12/20 08:44:59;;;;;;;20.20;18.70;;;;;;;;;;5022083;28;20467;-39
2023/12/20 08:47:27;;;;;;;20.73;19.10;;;;;;;;;;5030536;28;20455;-41
2023/12/20 08:49:56;;;;;;;19.10;18.00;;;;;;;;;;5029450;28;20468;-41
2023/12/20 08:52:24;;;;;;;19.87;18.70;;;;;;;;;;5028438;28;21219;-41
2023/12/20 08:54:53;;;;;;;20.30;19.07;;;;;;;;;;5029419;28;20447;-39
2023/12/20 08:57:23;;;;;;;19.60;18.40;;;;;;;;;;5027630;28;20474;-39
2023/12/20 08:59:52;;;;;;;21.67;19.70;;;;;;;;;;5028910;28;20460;-42
2023/12/20 09:02:19;;;;;;;21.00;19.50;;;;;;;;;;5029119;28;20820;-39
2023/12/20 09:04:47;;;;;;;19.23;18.10;;;;;;;;;;5029454;28;20847;-40
2023/12/20 09:07:24;;;;;;;19.07;17.93;;;;;;;;;;5029802;28;20429;-39
2023/12/20 09:09:52;;;;;;;19.90;18.37;;;;;;;;;;5030074;28;21024;-39
2023/12/20 09:12:20;;;;;;;19.50;18.47;;;;;;;;;;5028505;28;20919;-41
2023/12/20 09:14:48;;;;;;;19.77;18.60;;;;;;;;;;5027950;28;20543;-39
2023/12/20 09:17:16;;;;;;;20.60;19.27;;;;;;;;;;5028517;28;20555;-38
2023/12/20 09:19:44;;;;;;;20.43;18.80;;;;;;;;;;5029719;28;20847;-40
2023/12/20 09:22:12;;;;;;;19.70;18.20;;;;;;;;;;5029401;28;20456;-40
2023/12/20 09:24:40;;;;;;;19.27;18.20;;;;;;;;;;5029509;28;20471;-41
2023/12/20 09:27:08;;;;;;;20.03;18.87;;;;;;;;;;5028493;28;20436;-40
2023/12/20 09:29:35;;;;;;;20.17;19.27;;;;;;;;;;5028176;28;20456;-38
2023/12/20 09:32:03;;;;;;;18.63;17.73;;;;;;;;;;5028870;28;20514;-39
2023/12/20 09:34:32;;;;;;;20.83;19.00;;;;;;;;;;5029252;28;20455;-39
2023/12/20 09:37:00;;;;;;;19.60;18.30;;;;;;;;;;5028017;28;20556;-38
2023/12/20 09:39:28;;;;;;;20.17;18.67;;;;;;;;;;5028997;28;20460;-39
2023/12/20 09:42:03;;;;;;;19.73;18.53;;;;;;;;;;5028531;28;20533;-39
2023/12/20 09:44:31;;;;;;;20.67;19.03;;;;;;;;;;5028795;28;20527;-41
2023/12/20 09:46:58;;;;;;;18.63;17.37;;;;;;;;;;5029545;28;20479;-39
2023/12/20 09:49:28;;;;;;;19.83;18.63;;;;;;;;;;5028524;28;20464;-39
2023/12/20 09:51:57;;;;;;;20.27;18.77;;;;;;;;;;5028185;28;20461;-39
2023/12/20 09:54:26;;;;;;;20.03;18.63;;;;;;;;;;5028626;28;20467;-39
2023/12/20 09:56:53;;;;;;;20.73;19.33;;;;;;;;;;5028563;28;21005;-39
2023/12/20 09:59:21;;;;;;;20.03;18.53;;;;;;;;;;5027802;28;20987;-39
2023/12/20 10:01:49;;;;;;;22.00;19.83;;;;;;;;;;5027687;28;20460;-40
2023/12/20 10:04:17;;;;;;;19.93;18.60;;;;;;;;;;5028322;28;20527;-40
2023/12/20 10:07:03;;;;;;;19.50;18.50;;;;;;;;;;5029112;28;20515;-39
2023/12/20 10:09:34;;;;;;;20.33;18.57;;;;;;;;;;5028100;28;20459;-39
2023/12/20 10:12:02;;;;;;;21.87;20.00;;;;;;;;;;5027470;28;21025;-39
2023/12/20 10:14:29;;;;;;;18.93;17.70;;;;;;;;;;5028212;28;20797;-38
2023/12/20 10:17:02;;;;;;;18.67;17.43;;;;;;;;;;5027894;28;20476;-39
2023/12/20 10:19:30;;;;;;;19.17;17.90;;;;;;;;;;5027736;28;20464;-39
2023/12/20 10:22:00;;;;;;;18.77;17.77;;;;;;;;;;5027732;28;20514;-40
2023/12/20 10:24:29;;;;;;;20.93;19.43;;;;;;;;;;5027997;28;20440;-41
2023/12/20 10:27:04;;;;;;;19.53;17.73;;;;;;;;;;5027451;28;20531;-42
2023/12/20 10:29:33;;;;;;;20.57;18.93;;;;;;;;;;5027280;28;20484;-39
2023/12/20 10:32:22;;;;;;;19.90;18.77;;;;;;;;;;5027608;28;20471;-40
2023/12/20 10:34:49;;;;;;;20.47;19.03;;;;;;;;;;5028205;28;20464;-39
2023/12/20 10:37:18;;;;;;;19.83;18.47;;;;;;;;;;5027676;28;20518;-39
2023/12/20 10:39:49;;;;;;;21.23;19.60;;;;;;;;;;5027135;28;20463;-39
2023/12/20 10:42:17;;;;;;;20.43;18.90;;;;;;;;;;5027808;28;20444;-39
2023/12/20 10:44:44;;;;;;;23.27;19.43;;;;;;;;;;5027662;28;20443;-38
2023/12/20 10:47:12;;;;;;;20.60;18.87;;;;;;;;;;5027463;28;20433;-39
2023/12/20 10:49:41;;;;;;;20.80;19.30;;;;;;;;;;5027500;28;20900;-38
2023/12/20 10:52:10;;;;;;;21.07;19.33;;;;;;;;;;5027895;28;20514;-39
2023/12/20 10:54:39;;;;;;;21.47;19.70;;;;;;;;;;5027603;28;20611;-39
2023/12/20 10:57:07;;;;;;;21.10;19.17;;;;;;;;;;5028528;28;20480;-43
2023/12/20 10:59:36;;;;;;;20.27;18.63;;;;;;;;;;5030639;28;21065;-40
2023/12/20 11:02:05;;;;;;;22.47;20.30;;;;;;;;;;5027291;28;20455;-39
2023/12/20 11:04:37;;;;;;;23.80;21.40;;;;;;;;;;5027841;28;20807;-41
2023/12/20 11:07:09;;;;;;;22.27;20.73;;;;;;;;;;5020417;28;20490;-42
2023/12/20 11:09:39;;;;;;;20.20;18.77;;;;;;;;;;5025968;28;20491;-40
2023/12/20 11:12:10;;;;;;;22.80;21.03;;;;;;;;;;5025452;28;20490;-41
2023/12/20 11:14:41;;;;;;;22.10;20.40;;;;;;;;;;5025791;28;21070;-40
2023/12/20 11:17:09;;;;;;;22.17;20.63;;;;;;;;;;5017753;28;20501;-41
2023/12/20 11:19:37;;;;;;;22.23;20.30;;;;;;;;;;5026090;28;20546;-40
2023/12/20 11:22:06;;;;;;;22.93;20.17;;;;;;;;;;5024288;28;20535;-39
2023/12/20 11:24:34;;;;;;;21.23;19.57;;;;;;;;;;5025167;28;20448;-39
2023/12/20 11:27:02;;;;;;;21.97;19.73;;;;;;;;;;5024921;28;20780;-39
2023/12/20 11:29:35;;;;;;;23.00;20.80;;;;;;;;;;5024441;28;20464;-44
2023/12/20 11:32:03;;;;;;;21.87;19.77;;;;;;;;;;5025341;28;20551;-42
2023/12/20 11:34:32;;;;;;;21.13;19.40;;;;;;;;;;5024498;28;20956;-41
2023/12/20 11:37:00;;;;;;;21.33;18.57;;;;;;;;;;5022910;28;20436;-39
2023/12/20 11:39:29;;;;;;;21.73;19.97;;;;;;;;;;5023507;28;20970;-41
2023/12/20 11:41:58;;;;;;;22.27;19.60;;;;;;;;;;5028074;28;20456;-39
2023/12/20 11:44:26;;;;;;;24.50;20.53;;;;;;;;;;5029302;28;20529;-38
2023/12/20 11:46:55;;;;;;;20.07;18.67;;;;;;;;;;5032783;28;20432;-41
2023/12/20 11:49:26;;;;;;;19.97;18.33;;;;;;;;;;5029134;28;20460;-42
2023/12/20 11:51:53;;;;;;;28.27;26.23;;;;;;;;;;5032133;28;20444;-39
2023/12/20 11:54:21;;;;;;;43.83;40.73;;;;;;;;;;5030761;28;20444;-39
2023/12/20 11:56:49;;;;;;;162.13;154.03;;;;;;;;;;5028481;28;20548;-39
2023/12/20 11:59:16;;;;;;;217.20;206.33;;;;;;;;;;5027830;28;20522;-39
2023/12/20 12:01:51;;;;;;;314.23;299.33;;;;;;;;;;5033099;28;20448;-38
2023/12/20 12:04:20;;;;;;;284.17;269.90;;;;;;;;;;5028140;28;20435;-42
2023/12/20 12:06:48;;;;;;;232.77;220.90;;;;;;;;;;5030143;28;20467;-38
2023/12/20 12:09:16;;;;;;;161.53;152.00;;;;;;;;;;5030128;28;20551;-38
2023/12/20 12:11:44;;;;;;;121.93;115.83;;;;;;;;;;5031537;28;20526;-40
2023/12/20 12:14:11;;;;;;;81.67;76.50;;;;;;;;;;5022494;28;20967;-39
2023/12/20 12:16:39;;;;;;;50.03;46.83;;;;;;;;;;5028930;28;20849;-38
2023/12/20 12:19:07;;;;;;;28.70;25.73;;;;;;;;;;5029972;28;20475;-38
2023/12/20 12:21:36;;;;;;;27.97;25.07;;;;;;;;;;5033390;28;20505;-38
2023/12/20 12:24:09;;;;;;;28.90;26.20;;;;;;;;;;5027404;28;20491;-40
2023/12/20 12:26:37;;;;;;;28.33;25.53;;;;;;;;;;5030175;28;20861;-40
2023/12/20 12:29:07;;;;;;;27.53;24.73;;;;;;;;;;5029354;28;20514;-44
2023/12/20 12:31:35;;;;;;;27.00;24.40;;;;;;;;;;5032538;28;20478;-41
2023/12/20 12:34:03;;;;;;;27.00;24.20;;;;;;;;;;5032101;28;20464;-39
2023/12/20 12:36:31;;;;;;;27.23;24.87;;;;;;;;;;5028857;28;20487;-41
2023/12/20 12:39:04;;;;;;;23.87;21.67;;;;;;;;;;5030780;28;21125;-41
2023/12/20 12:41:32;;;;;;;25.23;22.57;;;;;;;;;;5028649;28;20448;-40
2023/12/20 12:43:59;;;;;;;22.70;21.20;;;;;;;;;;5029438;28;20436;-41
2023/12/20 12:46:41;;;;;;;31.03;25.00;;;;;;;;;;5029385;28;21009;-42
2023/12/20 12:49:08;;;;;;;40.00;24.70;;;;;;;;;;5028967;28;20514;-40
2023/12/20 12:51:36;;;;;;;33.07;27.17;;;;;;;;;;5029420;28;20463;-39
2023/12/20 12:54:06;;;;;;;23.13;20.73;;;;;;;;;;5027911;28;20490;-38
2023/12/20 12:56:34;;;;;;;24.87;20.33;;;;;;;;;;5029415;28;20519;-40
2023/12/20 12:59:02;;;;;;;21.67;19.57;;;;;;;;;;5029140;28;20470;-40
2023/12/20 13:01:29;;;;;;;23.77;20.43;;;;;;;;;;5029443;28;20455;-39
2023/12/20 13:03:57;;;;;;;22.57;20.27;;;;;;;;;;5029142;28;21028;-40
2023/12/20 13:06:25;;;;;;;22.97;20.57;;;;;;;;;;5029042;28;20437;-39
2023/12/20 13:08:52;;;;;;;22.37;19.93;;;;;;;;;;5027985;28;20464;-40
2023/12/20 13:11:21;;;;;;;22.60;20.30;;;;;;;;;;5028516;28;20961;-38
2023/12/20 13:13:49;;;;;;;24.27;20.80;;;;;;;;;;5028589;28;20839;-40
2023/12/20 13:16:17;;;;;;;21.93;19.83;;;;;;;;;;5029908;28;20432;-41
2023/12/20 13:18:44;;;;;;;21.83;19.80;;;;;;;;;;5027140;28;20482;-37
2023/12/20 13:21:12;;;;;;;26.47;20.70;;;;;;;;;;5028865;28;20448;-41
2023/12/20 13:23:40;;;;;;;22.83;20.83;;;;;;;;;;5029097;28;20443;-42
2023/12/20 13:26:08;;;;;;;24.03;20.20;;;;;;;;;;5028212;28;20432;-38
2023/12/20 13:28:37;;;;;;;21.37;19.63;;;;;;;;;;5028047;28;20513;-41
2023/12/20 13:31:04;;;;;;;22.67;20.53;;;;;;;;;;5029156;28;20996;-39
2023/12/20 13:33:32;;;;;;;20.80;19.23;;;;;;;;;;5028500;28;20433;-40
2023/12/20 13:36:00;;;;;;;19.73;18.53;;;;;;;;;;5028284;28;20482;-39
2023/12/20 13:38:30;;;;;;;21.27;19.60;;;;;;;;;;5028225;28;20476;-37
2023/12/20 13:40:59;;;;;;;21.60;19.70;;;;;;;;;;5028570;28;20542;-39
2023/12/20 13:43:26;;;;;;;20.60;18.90;;;;;;;;;;5034228;28;20493;-38
2023/12/20 13:45:56;;;;;;;20.37;18.50;;;;;;;;;;5031628;28;20432;-37
2023/12/20 13:48:23;;;;;;;19.40;17.80;;;;;;;;;;5028008;28;20543;-38
2023/12/20 13:50:51;;;;;;;21.13;19.40;;;;;;;;;;5028003;28;20514;-37
2023/12/20 13:53:19;;;;;;;21.23;19.43;;;;;;;;;;5028200;28;20456;-40
2023/12/20 13:55:47;;;;;;;19.97;18.20;;;;;;;;;;5029243;28;20454;-40
2023/12/20 13:58:14;;;;;;;21.17;19.20;;;;;;;;;;5029216;28;20531;-40
2023/12/20 14:00:42;;;;;;;20.63;18.80;;;;;;;;;;5027817;28;20452;-38
2023/12/20 14:03:11;;;;;;;22.03;19.97;;;;;;;;;;5027597;28;20436;-38
2023/12/20 14:05:39;;;;;;;20.87;18.97;;;;;;;;;;5028272;28;20440;-40
2023/12/20 14:08:07;;;;;;;25.00;18.60;;;;;;;;;;5027629;28;20445;-40
2023/12/20 14:10:35;;;;;;;20.20;18.47;;;;;;;;;;5028077;28;20567;-42
2023/12/20 14:13:03;;;;;;;20.90;18.90;;;;;;;;;;5027509;28;20432;-39
2023/12/20 14:15:36;;;;;;;20.43;18.63;;;;;;;;;;5028389;28;20433;-38
2023/12/20 14:18:05;;;;;;;21.03;18.67;;;;;;;;;;5026432;28;20869;-41
2023/12/20 14:20:35;;;;;;;22.07;20.00;;;;;;;;;;5027630;28;20547;-38
2023/12/20 14:23:02;;;;;;;22.80;19.57;;;;;;;;;;5027715;28;20443;-39